sensor_id;sensor_type;location;lat;lon;timestamp;P1;durP1;ratioP1;P2;durP2;ratioP2
8458;SDS011;4266;48.816;9.154;2024-03-23T00:52:26;5.80;;;5.30;;
8458;SDS011;4266;48.816;9.154;2024-03-23T00:54:52;4.90;;;4.40;;
8458;SDS011;4266;48.816;9.154;2024-03-23T00:57:17;5.07;;;4.50;;
8458;SDS011;4266;48.816;9.154;2024-03-23T00:59:43;4.47;;;4.07;;
8458;SDS011;4266;48.816;9.154;2024-03-23T01:02:10;6.00;;;4.00;;
8458;SDS011;4266;48.816;9.154;2024-03-23T01:04:35;3.87;;;3.57;;
8458;SDS011;4266;48.816;9.154;2024-03-23T01:07:01;6.50;;;4.00;;
8458;SDS011;4266;48.816;9.154;2024-03-23T01:09:26;4.57;;;3.90;;
8458;SDS011;4266;48.816;9.154;2024-03-23T01:11:52;4.10;;;3.70;;
8458;SDS011;4266;48.816;9.154;2024-03-23T01:14:18;4.13;;;3.73;;
8458;SDS011;4266;48.816;9.154;2024-03-23T01:16:44;4.97;;;3.90;;
8458;SDS011;4266;48.816;9.154;2024-03-23T01:19:10;4.43;;;3.77;;
8458;SDS011;4266;48.816;9.154;2024-03-23T01:21:36;3.93;;;3.47;;
8458;SDS011;4266;48.816;9.154;2024-03-23T01:24:02;4.90;;;3.87;;
8458;SDS011;4266;48.816;9.154;2024-03-23T01:26:28;3.80;;;3.50;;
8458;SDS011;4266;48.816;9.154;2024-03-23T01:28:53;4.17;;;3.57;;
8458;SDS011;4266;48.816;9.154;2024-03-23T01:31:19;3.77;;;3.47;;
8458;SDS011;4266;48.816;9.154;2024-03-23T01:33:45;6.03;;;3.70;;
8458;SDS011;4266;48.816;9.154;2024-03-23T01:36:11;3.60;;;3.30;;
8458;SDS011;4266;48.816;9.154;2024-03-23T01:38:36;4.23;;;3.83;;
8458;SDS011;4266;48.816;9.154;2024-03-23T01:41:02;4.60;;;3.47;;
8458;SDS011;4266;48.816;9.154;2024-03-23T01:43:29;3.47;;;3.17;;
8458;SDS011;4266;48.816;9.154;2024-03-23T01:45:54;5.03;;;3.50;;
8458;SDS011;4266;48.816;9.154;2024-03-23T01:48:20;4.07;;;3.47;;
8458;SDS011;4266;48.816;9.154;2024-03-23T01:50:46;3.60;;;3.30;;
8458;SDS011;4266;48.816;9.154;2024-03-23T01:53:11;3.97;;;3.20;;
8458;SDS011;4266;48.816;9.154;2024-03-23T01:55:41;3.80;;;3.43;;
8458;SDS011;4266;48.816;9.154;2024-03-23T01:58:07;3.93;;;3.63;;
8458;SDS011;4266;48.816;9.154;2024-03-23T02:00:33;4.27;;;3.33;;
8458;SDS011;4266;48.816;9.154;2024-03-23T02:02:59;5.13;;;3.73;;
8458;SDS011;4266;48.816;9.154;2024-03-23T02:05:25;5.43;;;3.50;;
8458;SDS011;4266;48.816;9.154;2024-03-23T02:07:50;4.00;;;3.60;;
8458;SDS011;4266;48.816;9.154;2024-03-23T02:10:17;6.53;;;3.77;;
8458;SDS011;4266;48.816;9.154;2024-03-23T02:12:43;5.63;;;3.90;;
8458;SDS011;4266;48.816;9.154;2024-03-23T02:15:08;5.83;;;3.87;;
8458;SDS011;4266;48.816;9.154;2024-03-23T02:17:34;4.13;;;3.83;;
8458;SDS011;4266;48.816;9.154;2024-03-23T02:20:00;4.07;;;3.73;;
8458;SDS011;4266;48.816;9.154;2024-03-23T02:22:34;4.83;;;3.70;;
8458;SDS011;4266;48.816;9.154;2024-03-23T02:24:51;3.93;;;3.60;;
8458;SDS011;4266;48.816;9.154;2024-03-23T02:27:17;4.10;;;3.70;;
8458;SDS011;4266;48.816;9.154;2024-03-23T02:29:42;4.07;;;3.77;;
8458;SDS011;4266;48.816;9.154;2024-03-23T02:32:09;6.57;;;3.83;;
8458;SDS011;4266;48.816;9.154;2024-03-23T02:34:35;6.10;;;3.90;;
8458;SDS011;4266;48.816;9.154;2024-03-23T02:37:00;5.67;;;3.93;;
8458;SDS011;4266;48.816;9.154;2024-03-23T02:39:26;4.73;;;3.73;;
8458;SDS011;4266;48.816;9.154;2024-03-23T02:41:52;4.30;;;3.50;;
8458;SDS011;4266;48.816;9.154;2024-03-23T02:44:18;4.00;;;3.70;;
8458;SDS011;4266;48.816;9.154;2024-03-23T02:46:44;4.53;;;3.90;;
8458;SDS011;4266;48.816;9.154;2024-03-23T02:49:10;4.40;;;3.87;;
8458;SDS011;4266;48.816;9.154;2024-03-23T02:51:36;4.73;;;4.00;;
8458;SDS011;4266;48.816;9.154;2024-03-23T02:54:01;4.43;;;3.70;;
8458;SDS011;4266;48.816;9.154;2024-03-23T02:56:27;4.50;;;4.10;;
8458;SDS011;4266;48.816;9.154;2024-03-23T02:58:53;4.17;;;3.77;;
8458;SDS011;4266;48.816;9.154;2024-03-23T03:01:19;4.53;;;3.80;;
8458;SDS011;4266;48.816;9.154;2024-03-23T03:03:46;4.80;;;3.67;;
8458;SDS011;4266;48.816;9.154;2024-03-23T03:06:11;4.10;;;3.80;;
8458;SDS011;4266;48.816;9.154;2024-03-23T03:08:37;4.35;;;3.70;;
8458;SDS011;4266;48.816;9.154;2024-03-23T03:11:03;4.70;;;4.10;;
8458;SDS011;4266;48.816;9.154;2024-03-23T03:13:29;4.50;;;4.10;;
8458;SDS011;4266;48.816;9.154;2024-03-23T03:15:55;4.53;;;4.13;;
8458;SDS011;4266;48.816;9.154;2024-03-23T03:18:21;5.50;;;3.50;;
8458;SDS011;4266;48.816;9.154;2024-03-23T03:20:47;4.77;;;3.83;;
8458;SDS011;4266;48.816;9.154;2024-03-23T03:23:13;3.33;;;3.13;;
8458;SDS011;4266;48.816;9.154;2024-03-23T03:25:39;3.87;;;3.67;;
8458;SDS011;4266;48.816;9.154;2024-03-23T03:28:05;4.40;;;4.00;;
8458;SDS011;4266;48.816;9.154;2024-03-23T03:30:31;4.87;;;3.87;;
8458;SDS011;4266;48.816;9.154;2024-03-23T03:32:56;5.37;;;3.73;;
8458;SDS011;4266;48.816;9.154;2024-03-23T03:35:22;4.40;;;4.00;;
8458;SDS011;4266;48.816;9.154;2024-03-23T03:37:48;6.53;;;3.83;;
8458;SDS011;4266;48.816;9.154;2024-03-23T03:40:14;5.73;;;4.03;;
8458;SDS011;4266;48.816;9.154;2024-03-23T03:42:41;3.90;;;3.60;;
8458;SDS011;4266;48.816;9.154;2024-03-23T03:45:06;7.50;;;3.90;;
8458;SDS011;4266;48.816;9.154;2024-03-23T03:47:32;4.73;;;3.43;;
8458;SDS011;4266;48.816;9.154;2024-03-23T03:49:58;4.57;;;4.03;;
8458;SDS011;4266;48.816;9.154;2024-03-23T03:52:23;5.63;;;3.77;;
8458;SDS011;4266;48.816;9.154;2024-03-23T03:54:49;3.90;;;3.50;;
8458;SDS011;4266;48.816;9.154;2024-03-23T03:57:15;4.67;;;3.80;;
8458;SDS011;4266;48.816;9.154;2024-03-23T03:59:41;4.00;;;3.57;;
8458;SDS011;4266;48.816;9.154;2024-03-23T04:02:07;3.93;;;3.63;;
8458;SDS011;4266;48.816;9.154;2024-03-23T04:04:32;5.67;;;4.07;;
8458;SDS011;4266;48.816;9.154;2024-03-23T04:06:59;5.03;;;3.70;;
8458;SDS011;4266;48.816;9.154;2024-03-23T04:09:25;5.63;;;3.63;;
8458;SDS011;4266;48.816;9.154;2024-03-23T04:11:50;4.27;;;3.87;;
8458;SDS011;4266;48.816;9.154;2024-03-23T04:14:16;5.27;;;3.47;;
8458;SDS011;4266;48.816;9.154;2024-03-23T04:16:42;4.37;;;3.70;;
8458;SDS011;4266;48.816;9.154;2024-03-23T04:19:08;4.13;;;3.83;;
8458;SDS011;4266;48.816;9.154;2024-03-23T04:21:34;4.63;;;3.50;;
8458;SDS011;4266;48.816;9.154;2024-03-23T04:24:00;6.43;;;3.80;;
8458;SDS011;4266;48.816;9.154;2024-03-23T04:26:25;3.50;;;3.20;;
8458;SDS011;4266;48.816;9.154;2024-03-23T04:28:52;4.47;;;3.60;;
8458;SDS011;4266;48.816;9.154;2024-03-23T04:31:17;5.10;;;3.20;;
8458;SDS011;4266;48.816;9.154;2024-03-23T04:33:44;7.30;;;4.20;;
8458;SDS011;4266;48.816;9.154;2024-03-23T04:36:09;4.67;;;4.30;;
8458;SDS011;4266;48.816;9.154;2024-03-23T04:38:35;6.60;;;5.00;;
8458;SDS011;4266;48.816;9.154;2024-03-23T04:41:01;5.77;;;5.30;;
8458;SDS011;4266;48.816;9.154;2024-03-23T04:43:26;6.87;;;6.10;;
8458;SDS011;4266;48.816;9.154;2024-03-23T04:45:52;7.20;;;6.60;;
8458;SDS011;4266;48.816;9.154;2024-03-23T04:48:20;7.33;;;6.73;;
8458;SDS011;4266;48.816;9.154;2024-03-23T04:50:45;7.40;;;6.70;;
8458;SDS011;4266;48.816;9.154;2024-03-23T04:53:11;8.03;;;7.10;;
8458;SDS011;4266;48.816;9.154;2024-03-23T04:55:37;7.83;;;7.13;;
8458;SDS011;4266;48.816;9.154;2024-03-23T04:58:03;8.97;;;8.27;;
8458;SDS011;4266;48.816;9.154;2024-03-23T05:00:30;11.93;;;9.37;;
8458;SDS011;4266;48.816;9.154;2024-03-23T05:02:56;13.83;;;10.17;;
8458;SDS011;4266;48.816;9.154;2024-03-23T05:05:21;12.10;;;10.53;;
8458;SDS011;4266;48.816;9.154;2024-03-23T05:07:47;13.33;;;11.00;;
8458;SDS011;4266;48.816;9.154;2024-03-23T05:10:13;13.97;;;12.23;;
8458;SDS011;4266;48.816;9.154;2024-03-23T05:12:38;13.40;;;12.03;;
8458;SDS011;4266;48.816;9.154;2024-03-23T05:15:05;15.50;;;13.37;;
8458;SDS011;4266;48.816;9.154;2024-03-23T05:17:32;15.97;;;13.30;;
8458;SDS011;4266;48.816;9.154;2024-03-23T05:19:58;15.10;;;13.50;;
8458;SDS011;4266;48.816;9.154;2024-03-23T05:22:23;15.40;;;13.00;;
8458;SDS011;4266;48.816;9.154;2024-03-23T05:24:49;18.27;;;13.43;;
8458;SDS011;4266;48.816;9.154;2024-03-23T05:27:15;15.80;;;14.30;;
8458;SDS011;4266;48.816;9.154;2024-03-23T05:29:40;15.33;;;13.63;;
8458;SDS011;4266;48.816;9.154;2024-03-23T05:32:06;18.93;;;14.17;;
8458;SDS011;4266;48.816;9.154;2024-03-23T05:34:32;16.83;;;14.57;;
8458;SDS011;4266;48.816;9.154;2024-03-23T05:36:58;16.10;;;14.23;;
8458;SDS011;4266;48.816;9.154;2024-03-23T05:39:23;16.73;;;14.50;;
8458;SDS011;4266;48.816;9.154;2024-03-23T05:41:50;16.70;;;14.90;;
8458;SDS011;4266;48.816;9.154;2024-03-23T05:44:15;14.87;;;13.30;;
8458;SDS011;4266;48.816;9.154;2024-03-23T05:46:41;16.30;;;12.77;;
8458;SDS011;4266;48.816;9.154;2024-03-23T05:49:08;14.63;;;12.43;;
8458;SDS011;4266;48.816;9.154;2024-03-23T05:51:33;14.20;;;12.10;;
8458;SDS011;4266;48.816;9.154;2024-03-23T05:53:58;12.67;;;11.30;;
8458;SDS011;4266;48.816;9.154;2024-03-23T05:56:25;12.00;;;10.90;;
8458;SDS011;4266;48.816;9.154;2024-03-23T05:58:50;10.07;;;9.10;;
8458;SDS011;4266;48.816;9.154;2024-03-23T06:01:16;7.20;;;6.60;;
8458;SDS011;4266;48.816;9.154;2024-03-23T06:03:42;5.87;;;5.30;;
8458;SDS011;4266;48.816;9.154;2024-03-23T06:06:07;7.33;;;5.10;;
8458;SDS011;4266;48.816;9.154;2024-03-23T06:08:33;6.13;;;5.10;;
8458;SDS011;4266;48.816;9.154;2024-03-23T06:10:59;5.50;;;5.00;;
8458;SDS011;4266;48.816;9.154;2024-03-23T06:13:25;5.43;;;4.93;;
8458;SDS011;4266;48.816;9.154;2024-03-23T06:15:50;4.73;;;4.37;;
8458;SDS011;4266;48.816;9.154;2024-03-23T06:18:16;4.47;;;4.07;;
8458;SDS011;4266;48.816;9.154;2024-03-23T06:20:42;4.53;;;4.23;;
8458;SDS011;4266;48.816;9.154;2024-03-23T06:23:08;4.80;;;4.40;;
8458;SDS011;4266;48.816;9.154;2024-03-23T06:25:33;4.23;;;3.93;;
8458;SDS011;4266;48.816;9.154;2024-03-23T06:28:00;4.30;;;4.00;;
8458;SDS011;4266;48.816;9.154;2024-03-23T06:30:26;4.17;;;3.87;;
8458;SDS011;4266;48.816;9.154;2024-03-23T06:32:51;3.93;;;3.63;;
8458;SDS011;4266;48.816;9.154;2024-03-23T06:35:17;3.63;;;3.33;;
8458;SDS011;4266;48.816;9.154;2024-03-23T06:37:43;4.03;;;3.13;;
8458;SDS011;4266;48.816;9.154;2024-03-23T06:40:08;3.23;;;2.93;;
8458;SDS011;4266;48.816;9.154;2024-03-23T06:42:34;2.93;;;2.73;;
8458;SDS011;4266;48.816;9.154;2024-03-23T06:45:00;2.43;;;2.33;;
8458;SDS011;4266;48.816;9.154;2024-03-23T06:47:26;2.73;;;2.60;;
8458;SDS011;4266;48.816;9.154;2024-03-23T06:49:52;2.70;;;2.50;;
8458;SDS011;4266;48.816;9.154;2024-03-23T06:52:17;2.20;;;2.10;;
8458;SDS011;4266;48.816;9.154;2024-03-23T06:54:43;3.40;;;3.20;;
8458;SDS011;4266;48.816;9.154;2024-03-23T06:57:10;3.53;;;3.23;;
8458;SDS011;4266;48.816;9.154;2024-03-23T06:59:35;3.07;;;2.80;;
8458;SDS011;4266;48.816;9.154;2024-03-23T07:02:02;2.90;;;2.70;;
8458;SDS011;4266;48.816;9.154;2024-03-23T07:04:28;2.90;;;2.60;;
8458;SDS011;4266;48.816;9.154;2024-03-23T07:06:54;2.83;;;2.73;;
8458;SDS011;4266;48.816;9.154;2024-03-23T07:09:20;2.30;;;2.20;;
8458;SDS011;4266;48.816;9.154;2024-03-23T07:11:46;2.95;;;2.80;;
8458;SDS011;4266;48.816;9.154;2024-03-23T07:14:11;2.43;;;2.33;;
8458;SDS011;4266;48.816;9.154;2024-03-23T07:16:38;2.40;;;2.30;;
8458;SDS011;4266;48.816;9.154;2024-03-23T07:19:03;2.50;;;2.40;;
8458;SDS011;4266;48.816;9.154;2024-03-23T07:21:30;2.40;;;2.30;;
8458;SDS011;4266;48.816;9.154;2024-03-23T07:23:55;2.73;;;2.63;;
8458;SDS011;4266;48.816;9.154;2024-03-23T07:26:21;2.53;;;2.43;;
8458;SDS011;4266;48.816;9.154;2024-03-23T07:28:47;3.60;;;3.40;;
8458;SDS011;4266;48.816;9.154;2024-03-23T07:31:13;2.50;;;2.30;;
8458;SDS011;4266;48.816;9.154;2024-03-23T07:33:41;2.90;;;2.70;;
8458;SDS011;4266;48.816;9.154;2024-03-23T07:36:06;1.87;;;1.77;;
8458;SDS011;4266;48.816;9.154;2024-03-23T07:38:32;2.60;;;2.50;;
8458;SDS011;4266;48.816;9.154;2024-03-23T07:41:02;2.97;;;2.83;;
8458;SDS011;4266;48.816;9.154;2024-03-23T07:43:35;2.57;;;2.47;;
8458;SDS011;4266;48.816;9.154;2024-03-23T07:46:01;2.50;;;2.40;;
8458;SDS011;4266;48.816;9.154;2024-03-23T07:48:27;2.40;;;2.30;;
8458;SDS011;4266;48.816;9.154;2024-03-23T07:50:56;2.97;;;2.77;;
8458;SDS011;4266;48.816;9.154;2024-03-23T07:53:29;2.37;;;2.27;;
8458;SDS011;4266;48.816;9.154;2024-03-23T07:55:56;3.57;;;2.97;;
8458;SDS011;4266;48.816;9.154;2024-03-23T07:58:21;2.40;;;2.30;;
8458;SDS011;4266;48.816;9.154;2024-03-23T08:00:47;3.27;;;3.07;;
8458;SDS011;4266;48.816;9.154;2024-03-23T08:03:12;2.57;;;2.47;;
8458;SDS011;4266;48.816;9.154;2024-03-23T08:05:38;2.77;;;2.67;;
8458;SDS011;4266;48.816;9.154;2024-03-23T08:08:04;2.47;;;2.37;;
8458;SDS011;4266;48.816;9.154;2024-03-23T08:10:31;2.13;;;2.03;;
8458;SDS011;4266;48.816;9.154;2024-03-23T08:12:56;2.80;;;2.70;;
8458;SDS011;4266;48.816;9.154;2024-03-23T08:15:22;3.17;;;2.97;;
8458;SDS011;4266;48.816;9.154;2024-03-23T08:17:49;2.57;;;2.47;;
8458;SDS011;4266;48.816;9.154;2024-03-23T08:20:14;2.30;;;2.20;;
8458;SDS011;4266;48.816;9.154;2024-03-23T08:22:41;2.70;;;2.60;;
8458;SDS011;4266;48.816;9.154;2024-03-23T08:25:07;2.50;;;2.40;;
8458;SDS011;4266;48.816;9.154;2024-03-23T08:27:33;2.67;;;2.57;;
8458;SDS011;4266;48.816;9.154;2024-03-23T08:29:59;2.97;;;2.80;;
8458;SDS011;4266;48.816;9.154;2024-03-23T08:32:24;2.43;;;2.23;;
8458;SDS011;4266;48.816;9.154;2024-03-23T08:34:50;2.60;;;2.50;;
8458;SDS011;4266;48.816;9.154;2024-03-23T08:37:16;2.40;;;2.30;;
8458;SDS011;4266;48.816;9.154;2024-03-23T08:39:43;3.30;;;3.07;;
8458;SDS011;4266;48.816;9.154;2024-03-23T08:42:09;5.17;;;2.80;;
8458;SDS011;4266;48.816;9.154;2024-03-23T08:44:35;2.90;;;2.70;;
8458;SDS011;4266;48.816;9.154;2024-03-23T08:47:01;3.37;;;3.10;;
8458;SDS011;4266;48.816;9.154;2024-03-23T08:49:27;3.03;;;2.83;;
8458;SDS011;4266;48.816;9.154;2024-03-23T08:51:53;7.37;;;3.40;;
8458;SDS011;4266;48.816;9.154;2024-03-23T08:54:19;7.03;;;3.87;;
8458;SDS011;4266;48.816;9.154;2024-03-23T08:56:45;9.73;;;5.13;;
8458;SDS011;4266;48.816;9.154;2024-03-23T08:59:11;5.83;;;4.07;;
8458;SDS011;4266;48.816;9.154;2024-03-23T09:01:37;7.30;;;4.30;;
8458;SDS011;4266;48.816;9.154;2024-03-23T09:04:04;7.73;;;4.23;;
8458;SDS011;4266;48.816;9.154;2024-03-23T09:06:29;4.83;;;4.00;;
8458;SDS011;4266;48.816;9.154;2024-03-23T09:08:55;5.93;;;4.17;;
8458;SDS011;4266;48.816;9.154;2024-03-23T09:11:21;5.13;;;3.87;;
8458;SDS011;4266;48.816;9.154;2024-03-23T09:13:46;4.90;;;4.10;;
8458;SDS011;4266;48.816;9.154;2024-03-23T09:16:12;4.83;;;3.93;;
8458;SDS011;4266;48.816;9.154;2024-03-23T09:18:38;7.10;;;4.57;;
8458;SDS011;4266;48.816;9.154;2024-03-23T09:21:04;3.87;;;3.50;;
8458;SDS011;4266;48.816;9.154;2024-03-23T09:23:30;4.63;;;4.10;;
8458;SDS011;4266;48.816;9.154;2024-03-23T09:25:56;6.33;;;5.00;;
8458;SDS011;4266;48.816;9.154;2024-03-23T09:28:22;6.87;;;4.80;;
8458;SDS011;4266;48.816;9.154;2024-03-23T09:30:48;5.63;;;4.60;;
8458;SDS011;4266;48.816;9.154;2024-03-23T09:33:13;4.73;;;3.70;;
8458;SDS011;4266;48.816;9.154;2024-03-23T09:35:40;5.10;;;4.40;;
8458;SDS011;4266;48.816;9.154;2024-03-23T09:38:05;6.10;;;4.40;;
8458;SDS011;4266;48.816;9.154;2024-03-23T09:40:31;4.80;;;4.13;;
8458;SDS011;4266;48.816;9.154;2024-03-23T09:42:58;7.40;;;4.07;;
8458;SDS011;4266;48.816;9.154;2024-03-23T09:45:27;5.77;;;4.70;;
8458;SDS011;4266;48.816;9.154;2024-03-23T09:47:52;6.80;;;4.93;;
8458;SDS011;4266;48.816;9.154;2024-03-23T09:50:18;4.20;;;3.80;;
8458;SDS011;4266;48.816;9.154;2024-03-23T09:52:47;5.77;;;5.23;;
8458;SDS011;4266;48.816;9.154;2024-03-23T09:55:12;7.53;;;6.10;;
8458;SDS011;4266;48.816;9.154;2024-03-23T09:57:38;8.10;;;6.40;;
8458;SDS011;4266;48.816;9.154;2024-03-23T10:00:04;9.63;;;6.00;;
8458;SDS011;4266;48.816;9.154;2024-03-23T10:02:31;8.37;;;6.60;;
8458;SDS011;4266;48.816;9.154;2024-03-23T10:04:56;10.97;;;9.37;;
8458;SDS011;4266;48.816;9.154;2024-03-23T10:07:22;7.30;;;6.60;;
8458;SDS011;4266;48.816;9.154;2024-03-23T10:09:48;7.43;;;5.93;;
8458;SDS011;4266;48.816;9.154;2024-03-23T10:12:14;9.77;;;5.00;;
8458;SDS011;4266;48.816;9.154;2024-03-23T10:14:40;9.20;;;5.60;;
8458;SDS011;4266;48.816;9.154;2024-03-23T10:17:15;7.70;;;5.32;;
8458;SDS011;4266;48.816;9.154;2024-03-23T10:19:41;7.60;;;5.28;;
8458;SDS011;4266;48.816;9.154;2024-03-23T10:22:07;6.03;;;5.35;;
8458;SDS011;4266;48.816;9.154;2024-03-23T10:24:32;9.88;;;5.12;;
8458;SDS011;4266;48.816;9.154;2024-03-23T10:26:58;8.40;;;5.50;;
8458;SDS011;4266;48.816;9.154;2024-03-23T10:29:24;7.00;;;4.75;;
8458;SDS011;4266;48.816;9.154;2024-03-23T10:31:50;6.57;;;5.87;;
8458;SDS011;4266;48.816;9.154;2024-03-23T10:34:16;5.75;;;5.03;;
8458;SDS011;4266;48.816;9.154;2024-03-23T10:36:42;6.80;;;5.37;;
8458;SDS011;4266;48.816;9.154;2024-03-23T10:39:07;7.97;;;4.62;;
8458;SDS011;4266;48.816;9.154;2024-03-23T10:41:34;6.00;;;4.43;;
8458;SDS011;4266;48.816;9.154;2024-03-23T10:44:00;7.20;;;4.82;;
8458;SDS011;4266;48.816;9.154;2024-03-23T10:46:26;8.45;;;4.43;;
8458;SDS011;4266;48.816;9.154;2024-03-23T10:48:51;7.80;;;6.53;;
8458;SDS011;4266;48.816;9.154;2024-03-23T10:51:17;8.68;;;5.97;;
8458;SDS011;4266;48.816;9.154;2024-03-23T10:53:43;10.63;;;4.60;;
8458;SDS011;4266;48.816;9.154;2024-03-23T10:56:08;7.40;;;5.07;;
8458;SDS011;4266;48.816;9.154;2024-03-23T10:58:37;11.90;;;5.75;;
8458;SDS011;4266;48.816;9.154;2024-03-23T11:01:02;11.73;;;6.17;;
8458;SDS011;4266;48.816;9.154;2024-03-23T11:03:30;7.97;;;6.37;;
8458;SDS011;4266;48.816;9.154;2024-03-23T11:05:55;7.73;;;6.90;;
8458;SDS011;4266;48.816;9.154;2024-03-23T11:13:35;6.70;;;5.13;;
8458;SDS011;4266;48.816;9.154;2024-03-23T11:16:12;5.23;;;4.77;;
8458;SDS011;4266;48.816;9.154;2024-03-23T11:18:27;4.70;;;4.30;;
8458;SDS011;4266;48.816;9.154;2024-03-23T11:20:52;6.47;;;5.30;;
8458;SDS011;4266;48.816;9.154;2024-03-23T11:25:52;5.57;;;5.07;;
8458;SDS011;4266;48.816;9.154;2024-03-23T11:28:17;4.87;;;3.77;;
8458;SDS011;4266;48.816;9.154;2024-03-23T11:30:43;5.15;;;4.60;;
8458;SDS011;4266;48.816;9.154;2024-03-23T11:33:10;3.97;;;3.67;;
8458;SDS011;4266;48.816;9.154;2024-03-23T11:35:37;4.37;;;3.72;;
8458;SDS011;4266;48.816;9.154;2024-03-23T11:38:04;4.37;;;3.58;;
8458;SDS011;4266;48.816;9.154;2024-03-23T11:40:33;4.40;;;3.78;;
8458;SDS011;4266;48.816;9.154;2024-03-23T11:42:59;4.95;;;4.40;;
8458;SDS011;4266;48.816;9.154;2024-03-23T11:45:24;5.35;;;4.85;;
8458;SDS011;4266;48.816;9.154;2024-03-23T11:48:01;4.82;;;4.40;;
8458;SDS011;4266;48.816;9.154;2024-03-23T11:50:23;4.20;;;3.80;;
8458;SDS011;4266;48.816;9.154;2024-03-23T11:52:49;6.15;;;4.15;;
8458;SDS011;4266;48.816;9.154;2024-03-23T11:55:16;5.37;;;3.40;;
8458;SDS011;4266;48.816;9.154;2024-03-23T11:57:40;4.50;;;3.17;;
8458;SDS011;4266;48.816;9.154;2024-03-23T12:02:41;8.52;;;3.78;;
8458;SDS011;4266;48.816;9.154;2024-03-23T12:05:13;3.87;;;3.42;;
8458;SDS011;4266;48.816;9.154;2024-03-23T12:07:39;5.13;;;3.50;;
8458;SDS011;4266;48.816;9.154;2024-03-23T12:10:05;7.50;;;3.67;;
8458;SDS011;4266;48.816;9.154;2024-03-23T12:12:32;5.23;;;3.63;;
8458;SDS011;4266;48.816;9.154;2024-03-23T12:15:02;6.47;;;3.90;;
8458;SDS011;4266;48.816;9.154;2024-03-23T12:17:26;7.22;;;3.72;;
8458;SDS011;4266;48.816;9.154;2024-03-23T12:19:52;5.62;;;4.32;;
8458;SDS011;4266;48.816;9.154;2024-03-23T12:22:20;4.95;;;3.72;;
8458;SDS011;4266;48.816;9.154;2024-03-23T12:24:43;5.30;;;3.97;;
8458;SDS011;4266;48.816;9.154;2024-03-23T12:27:09;6.68;;;3.65;;
8458;SDS011;4266;48.816;9.154;2024-03-23T12:29:34;8.55;;;4.18;;
8458;SDS011;4266;48.816;9.154;2024-03-23T12:32:00;6.07;;;4.40;;
8458;SDS011;4266;48.816;9.154;2024-03-23T12:34:27;4.68;;;3.53;;
8458;SDS011;4266;48.816;9.154;2024-03-23T12:36:52;9.60;;;4.97;;
8458;SDS011;4266;48.816;9.154;2024-03-23T12:39:18;7.43;;;4.10;;
8458;SDS011;4266;48.816;9.154;2024-03-23T12:41:44;8.40;;;5.28;;
8458;SDS011;4266;48.816;9.154;2024-03-23T12:44:09;8.02;;;3.70;;
8458;SDS011;4266;48.816;9.154;2024-03-23T12:46:35;5.78;;;3.70;;
8458;SDS011;4266;48.816;9.154;2024-03-23T12:49:01;7.57;;;4.95;;
8458;SDS011;4266;48.816;9.154;2024-03-23T12:51:27;9.50;;;5.45;;
8458;SDS011;4266;48.816;9.154;2024-03-23T12:53:53;11.27;;;5.93;;
8458;SDS011;4266;48.816;9.154;2024-03-23T12:56:18;7.45;;;4.10;;
8458;SDS011;4266;48.816;9.154;2024-03-23T12:58:44;5.25;;;3.87;;
8458;SDS011;4266;48.816;9.154;2024-03-23T13:01:10;5.68;;;3.75;;
8458;SDS011;4266;48.816;9.154;2024-03-23T13:03:35;7.50;;;4.37;;
8458;SDS011;4266;48.816;9.154;2024-03-23T13:06:01;6.85;;;4.18;;
8458;SDS011;4266;48.816;9.154;2024-03-23T13:08:27;6.40;;;4.03;;
8458;SDS011;4266;48.816;9.154;2024-03-23T13:10:52;6.62;;;3.67;;
8458;SDS011;4266;48.816;9.154;2024-03-23T13:13:18;7.20;;;3.80;;
8458;SDS011;4266;48.816;9.154;2024-03-23T13:15:49;5.10;;;3.55;;
8458;SDS011;4266;48.816;9.154;2024-03-23T13:18:18;5.53;;;3.42;;
8458;SDS011;4266;48.816;9.154;2024-03-23T13:20:44;6.93;;;3.78;;
8458;SDS011;4266;48.816;9.154;2024-03-23T13:23:10;6.97;;;3.97;;
8458;SDS011;4266;48.816;9.154;2024-03-23T13:25:36;7.82;;;3.45;;
8458;SDS011;4266;48.816;9.154;2024-03-23T13:28:02;4.35;;;3.15;;
8458;SDS011;4266;48.816;9.154;2024-03-23T13:30:27;7.57;;;3.25;;
8458;SDS011;4266;48.816;9.154;2024-03-23T13:32:54;7.20;;;3.60;;
8458;SDS011;4266;48.816;9.154;2024-03-23T13:35:20;4.60;;;3.03;;
8458;SDS011;4266;48.816;9.154;2024-03-23T13:37:46;4.25;;;3.12;;
8458;SDS011;4266;48.816;9.154;2024-03-23T13:40:12;5.07;;;3.00;;
8458;SDS011;4266;48.816;9.154;2024-03-23T13:42:38;5.82;;;2.80;;
8458;SDS011;4266;48.816;9.154;2024-03-23T13:45:04;7.18;;;2.97;;
8458;SDS011;4266;48.816;9.154;2024-03-23T13:47:31;5.37;;;2.93;;
8458;SDS011;4266;48.816;9.154;2024-03-23T13:49:56;6.10;;;2.80;;
8458;SDS011;4266;48.816;9.154;2024-03-23T13:52:22;7.37;;;3.07;;
8458;SDS011;4266;48.816;9.154;2024-03-23T13:54:48;3.80;;;2.67;;
8458;SDS011;4266;48.816;9.154;2024-03-23T13:57:14;5.70;;;2.90;;
8458;SDS011;4266;48.816;9.154;2024-03-23T13:59:39;6.83;;;3.40;;
8458;SDS011;4266;48.816;9.154;2024-03-23T14:02:05;5.77;;;2.60;;
8458;SDS011;4266;48.816;9.154;2024-03-23T14:04:31;5.23;;;2.57;;
8458;SDS011;4266;48.816;9.154;2024-03-23T14:06:58;5.50;;;2.03;;
8458;SDS011;4266;48.816;9.154;2024-03-23T14:09:23;4.20;;;2.50;;
8458;SDS011;4266;48.816;9.154;2024-03-23T14:11:50;2.87;;;2.20;;
8458;SDS011;4266;48.816;9.154;2024-03-23T14:14:16;8.00;;;2.80;;
8458;SDS011;4266;48.816;9.154;2024-03-23T14:16:42;5.67;;;3.40;;
8458;SDS011;4266;48.816;9.154;2024-03-23T14:19:09;3.97;;;2.73;;
8458;SDS011;4266;48.816;9.154;2024-03-23T14:21:35;3.73;;;2.70;;
8458;SDS011;4266;48.816;9.154;2024-03-23T14:24:00;2.97;;;2.40;;
8458;SDS011;4266;48.816;9.154;2024-03-23T14:26:26;2.87;;;2.37;;
8458;SDS011;4266;48.816;9.154;2024-03-23T14:28:52;2.63;;;2.40;;
8458;SDS011;4266;48.816;9.154;2024-03-23T14:31:17;2.60;;;2.40;;
8458;SDS011;4266;48.816;9.154;2024-03-23T14:33:43;3.83;;;2.30;;
8458;SDS011;4266;48.816;9.154;2024-03-23T14:36:12;2.50;;;2.30;;
8458;SDS011;4266;48.816;9.154;2024-03-23T14:38:38;4.07;;;2.53;;
8458;SDS011;4266;48.816;9.154;2024-03-23T14:41:04;3.47;;;2.43;;
8458;SDS011;4266;48.816;9.154;2024-03-23T14:43:29;5.33;;;3.20;;
8458;SDS011;4266;48.816;9.154;2024-03-23T14:48:33;5.03;;;3.07;;
8458;SDS011;4266;48.816;9.154;2024-03-23T14:50:59;2.57;;;2.37;;
8458;SDS011;4266;48.816;9.154;2024-03-23T14:53:26;4.30;;;2.60;;
8458;SDS011;4266;48.816;9.154;2024-03-23T14:55:54;4.83;;;3.20;;
8458;SDS011;4266;48.816;9.154;2024-03-23T14:58:17;3.17;;;2.80;;
8458;SDS011;4266;48.816;9.154;2024-03-23T15:00:43;5.43;;;3.17;;
8458;SDS011;4266;48.816;9.154;2024-03-23T15:03:08;3.30;;;2.90;;
8458;SDS011;4266;48.816;9.154;2024-03-23T15:05:34;4.50;;;2.80;;
8458;SDS011;4266;48.816;9.154;2024-03-23T15:08:01;2.93;;;2.60;;
8458;SDS011;4266;48.816;9.154;2024-03-23T15:10:26;4.80;;;3.17;;
8458;SDS011;4266;48.816;9.154;2024-03-23T15:12:52;5.07;;;2.50;;
8458;SDS011;4266;48.816;9.154;2024-03-23T15:15:17;3.77;;;2.20;;
8458;SDS011;4266;48.816;9.154;2024-03-23T15:17:44;2.23;;;2.00;;
8458;SDS011;4266;48.816;9.154;2024-03-23T15:20:10;2.83;;;2.33;;
8458;SDS011;4266;48.816;9.154;2024-03-23T15:22:36;3.07;;;2.53;;
8458;SDS011;4266;48.816;9.154;2024-03-23T15:25:01;4.77;;;2.37;;
8458;SDS011;4266;48.816;9.154;2024-03-23T15:27:27;2.87;;;2.37;;
8458;SDS011;4266;48.816;9.154;2024-03-23T15:29:53;2.40;;;2.23;;
8458;SDS011;4266;48.816;9.154;2024-03-23T15:32:19;3.00;;;2.23;;
8458;SDS011;4266;48.816;9.154;2024-03-23T15:34:44;3.20;;;2.13;;
8458;SDS011;4266;48.816;9.154;2024-03-23T15:37:10;2.47;;;2.20;;
8458;SDS011;4266;48.816;9.154;2024-03-23T15:39:36;2.80;;;2.40;;
8458;SDS011;4266;48.816;9.154;2024-03-23T15:42:01;3.77;;;2.30;;
8458;SDS011;4266;48.816;9.154;2024-03-23T15:44:27;2.93;;;2.33;;
8458;SDS011;4266;48.816;9.154;2024-03-23T15:46:54;2.80;;;2.20;;
8458;SDS011;4266;48.816;9.154;2024-03-23T15:49:19;3.37;;;2.40;;
8458;SDS011;4266;48.816;9.154;2024-03-23T15:51:45;3.60;;;2.53;;
8458;SDS011;4266;48.816;9.154;2024-03-23T15:54:10;2.80;;;2.40;;
8458;SDS011;4266;48.816;9.154;2024-03-23T15:56:36;3.37;;;2.30;;
8458;SDS011;4266;48.816;9.154;2024-03-23T15:59:03;2.60;;;2.40;;
8458;SDS011;4266;48.816;9.154;2024-03-23T16:01:30;3.33;;;2.63;;
8458;SDS011;4266;48.816;9.154;2024-03-23T16:03:56;2.47;;;2.27;;
8458;SDS011;4266;48.816;9.154;2024-03-23T16:06:22;3.77;;;2.27;;
8458;SDS011;4266;48.816;9.154;2024-03-23T16:08:48;3.27;;;2.20;;